sensor_id;sensor_type;location;lat;lon;timestamp;P1;durP1;ratioP1;P2;durP2;ratioP2
74510;SDS011;62991;50.040;18.400;2022-09-17T00:01:57;3.75;;;1.55;;
74510;SDS011;62991;50.040;18.400;2022-09-17T00:04:58;3.00;;;1.63;;
74510;SDS011;62991;50.040;18.400;2022-09-17T00:07:58;6.95;;;2.60;;
74510;SDS011;62991;50.040;18.400;2022-09-17T00:11:09;9.05;;;3.58;;
74510;SDS011;62991;50.040;18.400;2022-09-17T00:14:14;12.05;;;4.05;;
74510;SDS011;62991;50.040;18.400;2022-09-17T00:17:16;8.45;;;3.55;;
74510;SDS011;62991;50.040;18.400;2022-09-17T00:20:17;8.18;;;3.55;;
74510;SDS011;62991;50.040;18.400;2022-09-17T00:23:17;8.02;;;3.10;;
74510;SDS011;62991;50.040;18.400;2022-09-17T00:26:18;4.80;;;2.58;;
74510;SDS011;62991;50.040;18.400;2022-09-17T00:29:19;7.00;;;2.80;;
74510;SDS011;62991;50.040;18.400;2022-09-17T00:32:19;4.85;;;2.47;;
74510;SDS011;62991;50.040;18.400;2022-09-17T00:35:20;4.80;;;2.80;;
74510;SDS011;62991;50.040;18.400;2022-09-17T00:38:21;13.88;;;5.05;;
74510;SDS011;62991;50.040;18.400;2022-09-17T00:41:22;7.53;;;2.92;;
74510;SDS011;62991;50.040;18.400;2022-09-17T00:44:37;5.78;;;3.00;;
74510;SDS011;62991;50.040;18.400;2022-09-17T00:47:56;7.50;;;2.78;;
74510;SDS011;62991;50.040;18.400;2022-09-17T00:50:59;4.30;;;2.72;;
74510;SDS011;62991;50.040;18.400;2022-09-17T00:54:02;7.18;;;3.15;;
74510;SDS011;62991;50.040;18.400;2022-09-17T00:57:05;5.75;;;2.70;;
74510;SDS011;62991;50.040;18.400;2022-09-17T01:00:06;4.00;;;2.40;;
74510;SDS011;62991;50.040;18.400;2022-09-17T01:03:08;3.40;;;2.05;;
74510;SDS011;62991;50.040;18.400;2022-09-17T01:19:04;7.38;;;2.55;;
74510;SDS011;62991;50.040;18.400;2022-09-17T01:35:35;7.18;;;3.45;;
74510;SDS011;62991;50.040;18.400;2022-09-17T01:42:19;5.88;;;2.75;;
74510;SDS011;62991;50.040;18.400;2022-09-17T01:45:34;4.20;;;2.28;;
74510;SDS011;62991;50.040;18.400;2022-09-17T01:48:45;8.30;;;2.72;;
74510;SDS011;62991;50.040;18.400;2022-09-17T01:51:49;5.88;;;1.90;;
74510;SDS011;62991;50.040;18.400;2022-09-17T01:54:52;4.18;;;2.25;;
74510;SDS011;62991;50.040;18.400;2022-09-17T01:58:04;4.63;;;2.15;;
74510;SDS011;62991;50.040;18.400;2022-09-17T02:01:11;6.32;;;2.47;;
74510;SDS011;62991;50.040;18.400;2022-09-17T02:07:20;5.55;;;2.58;;
74510;SDS011;62991;50.040;18.400;2022-09-17T02:10:29;6.25;;;3.15;;
74510;SDS011;62991;50.040;18.400;2022-09-17T02:16:35;4.50;;;2.33;;
74510;SDS011;62991;50.040;18.400;2022-09-17T02:22:41;5.57;;;2.50;;
74510;SDS011;62991;50.040;18.400;2022-09-17T02:25:51;5.30;;;2.65;;
74510;SDS011;62991;50.040;18.400;2022-09-17T02:29:01;4.90;;;2.58;;
74510;SDS011;62991;50.040;18.400;2022-09-17T02:32:08;6.47;;;2.97;;
74510;SDS011;62991;50.040;18.400;2022-09-17T02:35:10;5.20;;;2.90;;
74510;SDS011;62991;50.040;18.400;2022-09-17T02:38:19;4.53;;;2.40;;
74510;SDS011;62991;50.040;18.400;2022-09-17T02:41:22;4.38;;;2.33;;
74510;SDS011;62991;50.040;18.400;2022-09-17T02:44:32;6.00;;;3.30;;
74510;SDS011;62991;50.040;18.400;2022-09-17T02:54:34;6.65;;;2.80;;
74510;SDS011;62991;50.040;18.400;2022-09-17T02:57:44;4.47;;;2.83;;
74510;SDS011;62991;50.040;18.400;2022-09-17T03:00:53;3.83;;;2.33;;
74510;SDS011;62991;50.040;18.400;2022-09-17T03:03:56;5.47;;;2.40;;
74510;SDS011;62991;50.040;18.400;2022-09-17T03:07:04;4.57;;;2.45;;
74510;SDS011;62991;50.040;18.400;2022-09-17T03:10:08;6.15;;;2.78;;
74510;SDS011;62991;50.040;18.400;2022-09-17T03:13:08;4.88;;;2.58;;
74510;SDS011;62991;50.040;18.400;2022-09-17T03:16:09;7.15;;;2.97;;
74510;SDS011;62991;50.040;18.400;2022-09-17T03:19:10;4.93;;;2.60;;
74510;SDS011;62991;50.040;18.400;2022-09-17T03:22:11;4.20;;;2.30;;
74510;SDS011;62991;50.040;18.400;2022-09-17T03:25:11;7.93;;;3.13;;
74510;SDS011;62991;50.040;18.400;2022-09-17T03:28:12;10.20;;;3.33;;
74510;SDS011;62991;50.040;18.400;2022-09-17T03:31:13;10.00;;;3.83;;
74510;SDS011;62991;50.040;18.400;2022-09-17T03:34:14;16.02;;;4.60;;
74510;SDS011;62991;50.040;18.400;2022-09-17T03:37:14;23.85;;;5.95;;
74510;SDS011;62991;50.040;18.400;2022-09-17T03:40:15;31.15;;;7.47;;
74510;SDS011;62991;50.040;18.400;2022-09-17T03:43:16;31.73;;;8.60;;
74510;SDS011;62991;50.040;18.400;2022-09-17T03:46:17;42.28;;;8.70;;
74510;SDS011;62991;50.040;18.400;2022-09-17T03:49:18;26.63;;;7.22;;
74510;SDS011;62991;50.040;18.400;2022-09-17T03:52:19;35.30;;;8.95;;
74510;SDS011;62991;50.040;18.400;2022-09-17T03:55:19;25.38;;;8.07;;
74510;SDS011;62991;50.040;18.400;2022-09-17T03:58:20;28.30;;;7.18;;
74510;SDS011;62991;50.040;18.400;2022-09-17T04:01:21;22.08;;;6.22;;
74510;SDS011;62991;50.040;18.400;2022-09-17T04:04:21;15.90;;;5.78;;
74510;SDS011;62991;50.040;18.400;2022-09-17T04:07:22;16.50;;;5.00;;
74510;SDS011;62991;50.040;18.400;2022-09-17T04:10:23;8.73;;;3.35;;
74510;SDS011;62991;50.040;18.400;2022-09-17T04:13:24;8.60;;;3.13;;
74510;SDS011;62991;50.040;18.400;2022-09-17T04:16:25;17.38;;;5.05;;
74510;SDS011;62991;50.040;18.400;2022-09-17T04:19:25;10.18;;;2.75;;
74510;SDS011;62991;50.040;18.400;2022-09-17T04:22:26;9.90;;;3.25;;
74510;SDS011;62991;50.040;18.400;2022-09-17T04:25:27;5.82;;;2.65;;
74510;SDS011;62991;50.040;18.400;2022-09-17T04:28:27;6.10;;;2.70;;
74510;SDS011;62991;50.040;18.400;2022-09-17T04:31:28;4.47;;;2.50;;
74510;SDS011;62991;50.040;18.400;2022-09-17T04:34:29;4.15;;;2.38;;
74510;SDS011;62991;50.040;18.400;2022-09-17T04:37:30;5.80;;;2.97;;
74510;SDS011;62991;50.040;18.400;2022-09-17T04:40:31;9.15;;;2.78;;
74510;SDS011;62991;50.040;18.400;2022-09-17T04:43:32;6.28;;;2.97;;
74510;SDS011;62991;50.040;18.400;2022-09-17T04:46:33;8.13;;;3.75;;
74510;SDS011;62991;50.040;18.400;2022-09-17T04:49:34;4.20;;;2.33;;
74510;SDS011;62991;50.040;18.400;2022-09-17T04:52:34;6.15;;;3.47;;
74510;SDS011;62991;50.040;18.400;2022-09-17T04:55:35;4.93;;;2.67;;
74510;SDS011;62991;50.040;18.400;2022-09-17T04:58:36;3.90;;;2.15;;
74510;SDS011;62991;50.040;18.400;2022-09-17T05:01:37;6.10;;;2.47;;
74510;SDS011;62991;50.040;18.400;2022-09-17T05:04:38;6.22;;;2.42;;
74510;SDS011;62991;50.040;18.400;2022-09-17T05:07:38;4.55;;;2.33;;
74510;SDS011;62991;50.040;18.400;2022-09-17T05:10:39;6.13;;;3.05;;
74510;SDS011;62991;50.040;18.400;2022-09-17T05:13:40;5.55;;;3.67;;
74510;SDS011;62991;50.040;18.400;2022-09-17T05:16:41;5.38;;;2.90;;
74510;SDS011;62991;50.040;18.400;2022-09-17T05:19:42;5.68;;;3.05;;
74510;SDS011;62991;50.040;18.400;2022-09-17T05:22:43;9.43;;;3.80;;
74510;SDS011;62991;50.040;18.400;2022-09-17T05:25:44;9.55;;;4.20;;
74510;SDS011;62991;50.040;18.400;2022-09-17T05:28:45;13.45;;;5.53;;
74510;SDS011;62991;50.040;18.400;2022-09-17T05:31:46;13.13;;;4.43;;
74510;SDS011;62991;50.040;18.400;2022-09-17T05:34:46;10.25;;;5.10;;
74510;SDS011;62991;50.040;18.400;2022-09-17T05:37:47;7.85;;;3.80;;
74510;SDS011;62991;50.040;18.400;2022-09-17T05:40:48;9.07;;;4.85;;
74510;SDS011;62991;50.040;18.400;2022-09-17T05:43:49;11.18;;;3.70;;
74510;SDS011;62991;50.040;18.400;2022-09-17T05:46:51;8.00;;;3.92;;
74510;SDS011;62991;50.040;18.400;2022-09-17T05:49:52;6.28;;;3.17;;
74510;SDS011;62991;50.040;18.400;2022-09-17T05:52:53;9.40;;;3.67;;
74510;SDS011;62991;50.040;18.400;2022-09-17T05:55:57;6.18;;;3.15;;
74510;SDS011;62991;50.040;18.400;2022-09-17T05:58:58;7.85;;;3.20;;
74510;SDS011;62991;50.040;18.400;2022-09-17T06:01:59;10.27;;;3.67;;
74510;SDS011;62991;50.040;18.400;2022-09-17T06:05:00;9.88;;;3.72;;
74510;SDS011;62991;50.040;18.400;2022-09-17T06:08:02;8.63;;;3.65;;
74510;SDS011;62991;50.040;18.400;2022-09-17T06:11:05;6.35;;;2.67;;
74510;SDS011;62991;50.040;18.400;2022-09-17T06:14:06;5.05;;;2.30;;
74510;SDS011;62991;50.040;18.400;2022-09-17T06:17:07;3.78;;;2.00;;
74510;SDS011;62991;50.040;18.400;2022-09-17T06:20:08;6.55;;;2.60;;
74510;SDS011;62991;50.040;18.400;2022-09-17T06:23:09;5.05;;;2.35;;
74510;SDS011;62991;50.040;18.400;2022-09-17T06:26:10;8.57;;;2.30;;
74510;SDS011;62991;50.040;18.400;2022-09-17T06:29:11;6.15;;;3.47;;
74510;SDS011;62991;50.040;18.400;2022-09-17T06:32:14;5.97;;;2.70;;
74510;SDS011;62991;50.040;18.400;2022-09-17T06:35:16;5.72;;;2.97;;
74510;SDS011;62991;50.040;18.400;2022-09-17T06:38:16;7.68;;;2.40;;
74510;SDS011;62991;50.040;18.400;2022-09-17T06:41:17;5.80;;;2.95;;
74510;SDS011;62991;50.040;18.400;2022-09-17T06:44:18;4.90;;;2.70;;
74510;SDS011;62991;50.040;18.400;2022-09-17T06:47:19;4.82;;;2.42;;
74510;SDS011;62991;50.040;18.400;2022-09-17T06:50:19;5.80;;;2.60;;
74510;SDS011;62991;50.040;18.400;2022-09-17T06:53:21;3.47;;;2.00;;
74510;SDS011;62991;50.040;18.400;2022-09-17T06:56:23;4.65;;;1.73;;
74510;SDS011;62991;50.040;18.400;2022-09-17T06:59:24;2.75;;;1.63;;
74510;SDS011;62991;50.040;18.400;2022-09-17T07:02:25;3.67;;;1.80;;
74510;SDS011;62991;50.040;18.400;2022-09-17T07:05:27;7.43;;;1.63;;
74510;SDS011;62991;50.040;18.400;2022-09-17T07:08:30;3.30;;;1.80;;
74510;SDS011;62991;50.040;18.400;2022-09-17T07:11:33;4.70;;;2.28;;
74510;SDS011;62991;50.040;18.400;2022-09-17T07:14:34;3.63;;;1.83;;
74510;SDS011;62991;50.040;18.400;2022-09-17T07:17:35;3.72;;;1.48;;
74510;SDS011;62991;50.040;18.400;2022-09-17T07:20:37;3.22;;;1.80;;
74510;SDS011;62991;50.040;18.400;2022-09-17T07:23:38;4.68;;;1.50;;
74510;SDS011;62991;50.040;18.400;2022-09-17T07:26:39;3.17;;;1.77;;
74510;SDS011;62991;50.040;18.400;2022-09-17T07:29:39;7.72;;;2.10;;
74510;SDS011;62991;50.040;18.400;2022-09-17T07:32:40;4.00;;;1.48;;
74510;SDS011;62991;50.040;18.400;2022-09-17T07:35:41;2.67;;;1.38;;
74510;SDS011;62991;50.040;18.400;2022-09-17T07:38:42;4.43;;;1.90;;
74510;SDS011;62991;50.040;18.400;2022-09-17T07:41:43;4.90;;;2.30;;
74510;SDS011;62991;50.040;18.400;2022-09-17T07:44:44;5.72;;;2.25;;
74510;SDS011;62991;50.040;18.400;2022-09-17T07:47:45;4.70;;;2.20;;
74510;SDS011;62991;50.040;18.400;2022-09-17T07:50:46;6.28;;;2.47;;
74510;SDS011;62991;50.040;18.400;2022-09-17T07:53:50;4.63;;;1.90;;
74510;SDS011;62991;50.040;18.400;2022-09-17T07:56:52;2.50;;;1.50;;
74510;SDS011;62991;50.040;18.400;2022-09-17T07:59:53;2.90;;;1.45;;
74510;SDS011;62991;50.040;18.400;2022-09-17T08:02:54;2.60;;;1.30;;
74510;SDS011;62991;50.040;18.400;2022-09-17T08:06:06;2.53;;;1.42;;
74510;SDS011;62991;50.040;18.400;2022-09-17T08:09:08;0.85;;;0.52;;
74510;SDS011;62991;50.040;18.400;2022-09-17T08:12:09;4.93;;;1.77;;
74510;SDS011;62991;50.040;18.400;2022-09-17T08:15:10;2.67;;;1.30;;
74510;SDS011;62991;50.040;18.400;2022-09-17T08:18:13;3.17;;;1.42;;
74510;SDS011;62991;50.040;18.400;2022-09-17T08:21:17;1.60;;;0.95;;
74510;SDS011;62991;50.040;18.400;2022-09-17T08:24:17;5.22;;;1.85;;
74510;SDS011;62991;50.040;18.400;2022-09-17T08:27:18;4.97;;;2.17;;
74510;SDS011;62991;50.040;18.400;2022-09-17T08:30:19;9.38;;;2.28;;
74510;SDS011;62991;50.040;18.400;2022-09-17T08:33:20;3.03;;;1.70;;
74510;SDS011;62991;50.040;18.400;2022-09-17T08:36:21;3.58;;;1.80;;
74510;SDS011;62991;50.040;18.400;2022-09-17T08:39:24;5.65;;;2.30;;
74510;SDS011;62991;50.040;18.400;2022-09-17T08:42:31;2.50;;;1.58;;
74510;SDS011;62991;50.040;18.400;2022-09-17T08:45:35;6.38;;;1.73;;
74510;SDS011;62991;50.040;18.400;2022-09-17T08:48:39;3.05;;;1.33;;
74510;SDS011;62991;50.040;18.400;2022-09-17T08:51:51;2.10;;;1.35;;
74510;SDS011;62991;50.040;18.400;2022-09-17T09:01:58;4.22;;;1.33;;
74510;SDS011;62991;50.040;18.400;2022-09-17T09:05:16;2.35;;;0.95;;
74510;SDS011;62991;50.040;18.400;2022-09-17T09:08:30;4.28;;;1.98;;
74510;SDS011;62991;50.040;18.400;2022-09-17T09:11:32;2.92;;;1.33;;
74510;SDS011;62991;50.040;18.400;2022-09-17T09:14:34;4.57;;;1.15;;
74510;SDS011;62991;50.040;18.400;2022-09-17T09:17:47;1.92;;;1.17;;
74510;SDS011;62991;50.040;18.400;2022-09-17T09:24:05;2.90;;;1.13;;
74510;SDS011;62991;50.040;18.400;2022-09-17T09:27:34;7.25;;;1.60;;
74510;SDS011;62991;50.040;18.400;2022-09-17T09:34:14;7.25;;;2.63;;
74510;SDS011;62991;50.040;18.400;2022-09-17T09:40:36;3.88;;;1.70;;
74510;SDS011;62991;50.040;18.400;2022-09-17T09:43:47;37.13;;;11.25;;
74510;SDS011;62991;50.040;18.400;2022-09-17T09:47:09;13.18;;;4.47;;
74510;SDS011;62991;50.040;18.400;2022-09-17T09:57:04;8.70;;;3.58;;
74510;SDS011;62991;50.040;18.400;2022-09-17T10:00:22;9.20;;;3.50;;
74510;SDS011;62991;50.040;18.400;2022-09-17T10:03:32;5.05;;;2.30;;
74510;SDS011;62991;50.040;18.400;2022-09-17T10:06:39;9.65;;;4.10;;
74510;SDS011;62991;50.040;18.400;2022-09-17T10:09:43;8.63;;;3.25;;
74510;SDS011;62991;50.040;18.400;2022-09-17T10:12:45;9.63;;;4.00;;
74510;SDS011;62991;50.040;18.400;2022-09-17T10:15:46;8.55;;;3.88;;
74510;SDS011;62991;50.040;18.400;2022-09-17T10:18:47;14.18;;;3.70;;
74510;SDS011;62991;50.040;18.400;2022-09-17T10:21:49;8.75;;;3.25;;
74510;SDS011;62991;50.040;18.400;2022-09-17T10:24:52;4.93;;;2.78;;
74510;SDS011;62991;50.040;18.400;2022-09-17T10:27:54;7.00;;;2.55;;
74510;SDS011;62991;50.040;18.400;2022-09-17T10:30:57;6.95;;;3.05;;
74510;SDS011;62991;50.040;18.400;2022-09-17T10:34:03;4.65;;;2.38;;
74510;SDS011;62991;50.040;18.400;2022-09-17T10:37:04;7.38;;;2.95;;
74510;SDS011;62991;50.040;18.400;2022-09-17T10:40:26;5.25;;;2.95;;
74510;SDS011;62991;50.040;18.400;2022-09-17T10:43:28;12.40;;;5.68;;
74510;SDS011;62991;50.040;18.400;2022-09-17T10:46:29;8.73;;;4.00;;
74510;SDS011;62991;50.040;18.400;2022-09-17T10:52:39;14.93;;;5.22;;
74510;SDS011;62991;50.040;18.400;2022-09-17T11:05:26;9.75;;;3.63;;
74510;SDS011;62991;50.040;18.400;2022-09-17T11:12:08;6.57;;;2.90;;
74510;SDS011;62991;50.040;18.400;2022-09-17T11:18:45;9.63;;;3.22;;
74510;SDS011;62991;50.040;18.400;2022-09-17T11:22:04;6.43;;;3.10;;
74510;SDS011;62991;50.040;18.400;2022-09-17T11:32:47;9.73;;;3.88;;
74510;SDS011;62991;50.040;18.400;2022-09-17T11:36:49;9.07;;;3.55;;
74510;SDS011;62991;50.040;18.400;2022-09-17T11:39:38;6.30;;;3.65;;
74510;SDS011;62991;50.040;18.400;2022-09-17T11:42:55;10.38;;;3.78;;
74510;SDS011;62991;50.040;18.400;2022-09-17T11:46:28;9.93;;;3.15;;
74510;SDS011;62991;50.040;18.400;2022-09-17T11:49:39;5.32;;;2.25;;
74510;SDS011;62991;50.040;18.400;2022-09-17T11:52:46;5.43;;;2.50;;
74510;SDS011;62991;50.040;18.400;2022-09-17T11:56:07;11.93;;;4.15;;
74510;SDS011;62991;50.040;18.400;2022-09-17T11:59:19;16.40;;;5.95;;
74510;SDS011;62991;50.040;18.400;2022-09-17T12:02:51;49.40;;;12.93;;
74510;SDS011;62991;50.040;18.400;2022-09-17T12:06:13;18.40;;;5.85;;
74510;SDS011;62991;50.040;18.400;2022-09-17T12:09:20;15.43;;;6.30;;
74510;SDS011;62991;50.040;18.400;2022-09-17T12:12:25;24.85;;;8.30;;
74510;SDS011;62991;50.040;18.400;2022-09-17T12:15:29;9.95;;;5.03;;
74510;SDS011;62991;50.040;18.400;2022-09-17T12:21:42;6.28;;;2.80;;
74510;SDS011;62991;50.040;18.400;2022-09-17T12:24:50;5.03;;;1.90;;
74510;SDS011;62991;50.040;18.400;2022-09-17T12:30:58;11.98;;;6.32;;
74510;SDS011;62991;50.040;18.400;2022-09-17T12:45:06;17.75;;;4.78;;
74510;SDS011;62991;50.040;18.400;2022-09-17T12:51:57;4.57;;;2.58;;
74510;SDS011;62991;50.040;18.400;2022-09-17T12:55:19;4.28;;;2.30;;
74510;SDS011;62991;50.040;18.400;2022-09-17T13:02:11;6.10;;;2.70;;
74510;SDS011;62991;50.040;18.400;2022-09-17T13:06:05;8.10;;;2.63;;
74510;SDS011;62991;50.040;18.400;2022-09-17T13:12:39;6.22;;;2.40;;
74510;SDS011;62991;50.040;18.400;2022-09-17T13:22:18;12.93;;;4.43;;
74510;SDS011;62991;50.040;18.400;2022-09-17T13:25:21;9.55;;;3.80;;
74510;SDS011;62991;50.040;18.400;2022-09-17T13:28:22;6.00;;;2.78;;
74510;SDS011;62991;50.040;18.400;2022-09-17T13:34:43;6.13;;;2.75;;
74510;SDS011;62991;50.040;18.400;2022-09-17T13:37:44;8.52;;;3.00;;
74510;SDS011;62991;50.040;18.400;2022-09-17T13:41:19;6.82;;;2.88;;
74510;SDS011;62991;50.040;18.400;2022-09-17T13:44:20;6.68;;;3.20;;
74510;SDS011;62991;50.040;18.400;2022-09-17T13:47:29;5.38;;;2.53;;
74510;SDS011;62991;50.040;18.400;2022-09-17T13:50:39;5.30;;;2.50;;
74510;SDS011;62991;50.040;18.400;2022-09-17T13:53:50;10.98;;;2.83;;
74510;SDS011;62991;50.040;18.400;2022-09-17T13:57:09;7.10;;;2.60;;
74510;SDS011;62991;50.040;18.400;2022-09-17T14:03:51;5.50;;;2.67;;
74510;SDS011;62991;50.040;18.400;2022-09-17T14:06:53;4.03;;;2.17;;
74510;SDS011;62991;50.040;18.400;2022-09-17T14:09:55;4.10;;;2.13;;
74510;SDS011;62991;50.040;18.400;2022-09-17T14:12:57;12.60;;;4.70;;
74510;SDS011;62991;50.040;18.400;2022-09-17T14:16:22;10.32;;;2.63;;
74510;SDS011;62991;50.040;18.400;2022-09-17T14:19:32;8.52;;;2.53;;
74510;SDS011;62991;50.040;18.400;2022-09-17T14:22:40;8.77;;;3.63;;
74510;SDS011;62991;50.040;18.400;2022-09-17T14:25:44;8.20;;;3.38;;
74510;SDS011;62991;50.040;18.400;2022-09-17T14:28:54;9.25;;;3.80;;
74510;SDS011;62991;50.040;18.400;2022-09-17T14:32:07;11.38;;;5.05;;
74510;SDS011;62991;50.040;18.400;2022-09-17T14:35:21;25.58;;;8.30;;
74510;SDS011;62991;50.040;18.400;2022-09-17T14:41:46;12.73;;;5.80;;
74510;SDS011;62991;50.040;18.400;2022-09-17T14:44:54;16.40;;;7.00;;
74510;SDS011;62991;50.040;18.400;2022-09-17T14:48:33;12.15;;;5.15;;
74510;SDS011;62991;50.040;18.400;2022-09-17T14:51:27;10.60;;;4.57;;
74510;SDS011;62991;50.040;18.400;2022-09-17T14:54:29;17.05;;;4.95;;
74510;SDS011;62991;50.040;18.400;2022-09-17T14:57:30;13.32;;;4.03;;
74510;SDS011;62991;50.040;18.400;2022-09-17T15:00:35;25.13;;;6.43;;
74510;SDS011;62991;50.040;18.400;2022-09-17T15:03:37;32.70;;;7.70;;
74510;SDS011;62991;50.040;18.400;2022-09-17T15:06:38;25.98;;;6.63;;
74510;SDS011;62991;50.040;18.400;2022-09-17T15:09:40;30.33;;;8.43;;
74510;SDS011;62991;50.040;18.400;2022-09-17T15:12:41;26.25;;;7.90;;
74510;SDS011;62991;50.040;18.400;2022-09-17T15:15:50;32.13;;;9.10;;
74510;SDS011;62991;50.040;18.400;2022-09-17T15:19:00;24.63;;;8.05;;
74510;SDS011;62991;50.040;18.400;2022-09-17T15:22:13;14.50;;;6.13;;
74510;SDS011;62991;50.040;18.400;2022-09-17T15:25:20;15.80;;;6.15;;
74510;SDS011;62991;50.040;18.400;2022-09-17T15:31:39;20.65;;;6.55;;
74510;SDS011;62991;50.040;18.400;2022-09-17T15:34:40;21.23;;;7.50;;
74510;SDS011;62991;50.040;18.400;2022-09-17T15:40:47;24.92;;;8.95;;
74510;SDS011;62991;50.040;18.400;2022-09-17T15:43:48;34.30;;;14.05;;
74510;SDS011;62991;50.040;18.400;2022-09-17T15:46:49;26.80;;;9.02;;
74510;SDS011;62991;50.040;18.400;2022-09-17T15:50:11;15.75;;;7.05;;
74510;SDS011;62991;50.040;18.400;2022-09-17T15:53:13;9.88;;;4.00;;
74510;SDS011;62991;50.040;18.400;2022-09-17T15:56:25;13.35;;;4.80;;
74510;SDS011;62991;50.040;18.400;2022-09-17T15:59:29;25.52;;;11.95;;
74510;SDS011;62991;50.040;18.400;2022-09-17T16:02:32;23.65;;;11.07;;
74510;SDS011;62991;50.040;18.400;2022-09-17T16:05:42;17.42;;;5.72;;
74510;SDS011;62991;50.040;18.400;2022-09-17T16:08:48;14.90;;;6.20;;
74510;SDS011;62991;50.040;18.400;2022-09-17T16:11:51;10.23;;;4.15;;
74510;SDS011;62991;50.040;18.400;2022-09-17T16:14:53;9.57;;;4.15;;
74510;SDS011;62991;50.040;18.400;2022-09-17T16:17:55;8.10;;;4.00;;
74510;SDS011;62991;50.040;18.400;2022-09-17T16:20:55;14.55;;;4.63;;
74510;SDS011;62991;50.040;18.400;2022-09-17T16:23:56;10.38;;;4.60;;
74510;SDS011;62991;50.040;18.400;2022-09-17T16:26:57;12.23;;;5.35;;
74510;SDS011;62991;50.040;18.400;2022-09-17T16:30:03;11.32;;;5.80;;
74510;SDS011;62991;50.040;18.400;2022-09-17T16:33:09;12.90;;;5.00;;
74510;SDS011;62991;50.040;18.400;2022-09-17T16:36:17;9.38;;;4.32;;
74510;SDS011;62991;50.040;18.400;2022-09-17T16:42:18;10.32;;;4.43;;
74510;SDS011;62991;50.040;18.400;2022-09-17T16:45:19;24.73;;;11.45;;
74510;SDS011;62991;50.040;18.400;2022-09-17T16:48:20;42.42;;;18.77;;
74510;SDS011;62991;50.040;18.400;2022-09-17T16:51:21;55.83;;;23.15;;
74510;SDS011;62991;50.040;18.400;2022-09-17T16:54:21;56.50;;;24.45;;
74510;SDS011;62991;50.040;18.400;2022-09-17T16:57:22;46.45;;;19.45;;
74510;SDS011;62991;50.040;18.400;2022-09-17T17:00:23;57.33;;;25.27;;
74510;SDS011;62991;50.040;18.400;2022-09-17T17:03:24;80.65;;;29.27;;
74510;SDS011;62991;50.040;18.400;2022-09-17T17:06:25;62.97;;;24.75;;
74510;SDS011;62991;50.040;18.400;2022-09-17T17:09:26;46.10;;;19.17;;
74510;SDS011;62991;50.040;18.400;2022-09-17T17:12:26;33.70;;;13.68;;
74510;SDS011;62991;50.040;18.400;2022-09-17T17:15:27;26.23;;;10.63;;
74510;SDS011;62991;50.040;18.400;2022-09-17T17:18:29;20.33;;;8.90;;
74510;SDS011;62991;50.040;18.400;2022-09-17T17:21:30;21.00;;;8.82;;
74510;SDS011;62991;50.040;18.400;2022-09-17T17:24:31;27.58;;;11.20;;
74510;SDS011;62991;50.040;18.400;2022-09-17T17:27:33;22.80;;;10.55;;
74510;SDS011;62991;50.040;18.400;2022-09-17T17:30:34;19.65;;;9.20;;
74510;SDS011;62991;50.040;18.400;2022-09-17T17:33:35;28.20;;;10.57;;
74510;SDS011;62991;50.040;18.400;2022-09-17T17:36:36;20.85;;;10.25;;
74510;SDS011;62991;50.040;18.400;2022-09-17T17:39:36;22.10;;;10.20;;
74510;SDS011;62991;50.040;18.400;2022-09-17T17:42:37;26.92;;;10.13;;
74510;SDS011;62991;50.040;18.400;2022-09-17T17:45:42;21.48;;;8.82;;
74510;SDS011;62991;50.040;18.400;2022-09-17T17:48:43;22.73;;;8.10;;
74510;SDS011;62991;50.040;18.400;2022-09-17T17:51:46;18.73;;;7.10;;
74510;SDS011;62991;50.040;18.400;2022-09-17T17:54:47;14.07;;;5.85;;
74510;SDS011;62991;50.040;18.400;2022-09-17T17:57:53;15.45;;;5.97;;
74510;SDS011;62991;50.040;18.400;2022-09-17T18:00:57;15.70;;;6.10;;
74510;SDS011;62991;50.040;18.400;2022-09-17T18:03:59;15.65;;;6.03;;
74510;SDS011;62991;50.040;18.400;2022-09-17T18:07:01;16.88;;;7.25;;
74510;SDS011;62991;50.040;18.400;2022-09-17T18:10:02;22.13;;;7.78;;
74510;SDS011;62991;50.040;18.400;2022-09-17T18:13:02;26.92;;;11.65;;
74510;SDS011;62991;50.040;18.400;2022-09-17T18:16:04;30.55;;;11.63;;
74510;SDS011;62991;50.040;18.400;2022-09-17T18:19:08;18.92;;;8.55;;
74510;SDS011;62991;50.040;18.400;2022-09-17T18:22:10;17.88;;;8.25;;
74510;SDS011;62991;50.040;18.400;2022-09-17T18:25:11;26.98;;;10.32;;
74510;SDS011;62991;50.040;18.400;2022-09-17T18:28:11;37.70;;;15.55;;
74510;SDS011;62991;50.040;18.400;2022-09-17T18:34:30;26.50;;;11.02;;
74510;SDS011;62991;50.040;18.400;2022-09-17T18:37:31;18.92;;;9.23;;
74510;SDS011;62991;50.040;18.400;2022-09-17T18:40:32;22.65;;;9.57;;
74510;SDS011;62991;50.040;18.400;2022-09-17T18:43:32;30.05;;;13.05;;
74510;SDS011;62991;50.040;18.400;2022-09-17T18:46:33;31.65;;;12.40;;
74510;SDS011;62991;50.040;18.400;2022-09-17T18:49:34;30.98;;;12.77;;
74510;SDS011;62991;50.040;18.400;2022-09-17T18:52:35;32.58;;;13.02;;
74510;SDS011;62991;50.040;18.400;2022-09-17T18:55:36;29.67;;;12.18;;
74510;SDS011;62991;50.040;18.400;2022-09-17T18:58:36;27.05;;;11.15;;
74510;SDS011;62991;50.040;18.400;2022-09-17T19:01:37;24.08;;;10.75;;
74510;SDS011;62991;50.040;18.400;2022-09-17T19:04:38;21.95;;;10.60;;
74510;SDS011;62991;50.040;18.400;2022-09-17T19:07:42;26.52;;;10.38;;
74510;SDS011;62991;50.040;18.400;2022-09-17T19:10:49;20.08;;;10.27;;
74510;SDS011;62991;50.040;18.400;2022-09-17T19:13:51;23.88;;;9.70;;
74510;SDS011;62991;50.040;18.400;2022-09-17T19:16:51;27.75;;;12.50;;
74510;SDS011;62991;50.040;18.400;2022-09-17T19:19:54;25.02;;;11.07;;
74510;SDS011;62991;50.040;18.400;2022-09-17T19:22:54;29.85;;;12.68;;
74510;SDS011;62991;50.040;18.400;2022-09-17T19:25:56;32.78;;;13.45;;
74510;SDS011;62991;50.040;18.400;2022-09-17T19:29:03;25.15;;;10.65;;
74510;SDS011;62991;50.040;18.400;2022-09-17T19:32:05;16.13;;;6.20;;
74510;SDS011;62991;50.040;18.400;2022-09-17T19:35:05;12.07;;;4.93;;
74510;SDS011;62991;50.040;18.400;2022-09-17T19:38:08;6.68;;;2.30;;
74510;SDS011;62991;50.040;18.400;2022-09-17T19:41:16;5.43;;;2.10;;
74510;SDS011;62991;50.040;18.400;2022-09-17T19:44:18;3.75;;;1.75;;
74510;SDS011;62991;50.040;18.400;2022-09-17T19:47:19;5.35;;;2.20;;
74510;SDS011;62991;50.040;18.400;2022-09-17T19:50:19;4.22;;;1.67;;
74510;SDS011;62991;50.040;18.400;2022-09-17T19:53:20;4.18;;;1.70;;
74510;SDS011;62991;50.040;18.400;2022-09-17T19:56:22;3.70;;;1.52;;
74510;SDS011;62991;50.040;18.400;2022-09-17T19:59:24;5.85;;;2.08;;
74510;SDS011;62991;50.040;18.400;2022-09-17T20:02:25;2.95;;;1.63;;
74510;SDS011;62991;50.040;18.400;2022-09-17T20:05:26;5.95;;;2.17;;
74510;SDS011;62991;50.040;18.400;2022-09-17T20:08:27;6.20;;;1.95;;
74510;SDS011;62991;50.040;18.400;2022-09-17T20:11:28;3.17;;;1.60;;
74510;SDS011;62991;50.040;18.400;2022-09-17T20:14:29;3.35;;;1.25;;
74510;SDS011;62991;50.040;18.400;2022-09-17T20:17:29;5.22;;;1.95;;
74510;SDS011;62991;50.040;18.400;2022-09-17T20:20:30;3.33;;;1.65;;
74510;SDS011;62991;50.040;18.400;2022-09-17T20:23:31;6.80;;;1.95;;
74510;SDS011;62991;50.040;18.400;2022-09-17T20:26:32;4.55;;;1.90;;
74510;SDS011;62991;50.040;18.400;2022-09-17T20:29:33;4.72;;;1.60;;
74510;SDS011;62991;50.040;18.400;2022-09-17T20:32:33;4.88;;;1.50;;
74510;SDS011;62991;50.040;18.400;2022-09-17T20:35:34;3.05;;;1.40;;
74510;SDS011;62991;50.040;18.400;2022-09-17T20:38:35;10.63;;;1.88;;
74510;SDS011;62991;50.040;18.400;2022-09-17T20:41:36;6.85;;;2.33;;